АЭРОДРОМУУД

ICAO:
ZMUB
Нэр:
УЛААНБААТАР / БУЯНТ-УХАА
Ахц:
475033N 1064603E
010132 ZMUBYNYX
(C0368/21 NOTAMR C0320/21
Q) ZMUB/QKKKK/K /K /K /000/999/4752N10350E999
A) ZMUB B) 2112010132 C) 2201010700 EST
E) CHECKLIST YEAR=2021 0182 0183 0287 0303 0304 0305 0306 0307 0330 0352 0364 0365 0366 0367 LATEST PUBLICATIONS: AIP AMDT : 07/21 PUBLICATION DATE 18 NOV 2021 AIRAC AIP AMDT: 08/21 WEF 30 DEC 2021 AIP DATA SET: AIPZM-AMDT10-21 PUB 18 NOV 2021 OBST DATA SET : O-AREA1ZM200618 WEF 18 JUN 2020 O-AREA2ZMCK200618 WEF 18 JUN 2020 O-AREA2ZMUB200730 WEF 10 SEP 2020 O-AREA3ZMCK200618 WEF 18 JUN 2020 O-AREA3ZMUB200618 WEF 18 JUN 2020. TERRAIN DATA SET : T-AREA1ZM200618 WEF 18 JUN 2020 T-AREA2ZMCK200618 WEF 18 JUN 2020 T-AREA2ZMUB200618 WEF 18 JUN 2020 T-AREA3ZMCK200618 WEF 18 JUN 2020 T-AREA3ZMUB200618 WEF 18 JUN 2020. AD MAPPING DATA SET : AMDBZMCK200618 WEF 18 JUN 2020 AMDBZMUB200618 WEF 18 JUN 2020 AMDBZMDZ200618 WEF 18 JUN 2020 IFP DATA SET:IFPZM21 WEF 04 JAN 2021 CHECKLIST AIP SUP: AIP SUP: 01/20, 08/20 CHECKLIST AIC: SERIES C: 02/20, 01/21, 02/21)
- 11 hours ago -
010125 ZMUBYNYX
(A0987/21 NOTAMR A0900/21
Q) ZMUB/QKKKK/K /K /K /000/999/4752N10350E999
A) ZMUB B) 2112010126 C) 2201010700 EST
E) CHECKLIST YEAR=2021 0770 0881 0882 0980 0981 0982 0984 0985 LATEST PUBLICATIONS: AIP AMDT : 07/21 PUBLICATION DATE 18 NOV 2021 AIRAC AIP AMDT: 08/21 WEF 30 DEC 2021 AIP DATA SET: AIPZM-AMDT10-21 PUB 18 NOV 2021 OBST DATA SET : O-AREA1ZM200618 WEF 18 JUN 2020 O-AREA2ZMCK200618 WEF 18 JUN 2020 O-AREA2ZMUB200730 WEF 10 SEP 2020 O-AREA3ZMCK200618 WEF 18 JUN 2020 O-AREA3ZMUB200618 WEF 18 JUN 2020. TERRAIN DATA SET : T-AREA1ZM200618 WEF 18 JUN 2020 T-AREA2ZMCK200618 WEF 18 JUN 2020 T-AREA2ZMUB200618 WEF 18 JUN 2020 T-AREA3ZMCK200618 WEF 18 JUN 2020 T-AREA3ZMUB200618 WEF 18 JUN 2020. AD MAPPING DATA SET : AMDBZMCK200618 WEF 18 JUN 2020 AMDBZMUB200618 WEF 18 JUN 2020 AMDBZMDZ200618 WEF 18 JUN 2020 IFP DATA SET:IFPZM21 WEF 04 JAN 2021 CHECKLIST AIP SUP: AIP SUP: 01/20, 08/20 CHECKLIST AIC: SERIES A: 04/17, 03/20, 06/20, 01/21, 02/21, 03/21)
- 11 hours ago -
291121 ZMUBYNYX
(A0984/21 NOTAMN
Q) ZMUB/QFALT/IV/NBO/A /000/999/4750N10646E005
A) ZMUB B) 2111300000 C) PERM
E) AD AVBL FOR EMERGENCY LANDING.)
- 2 days ago -
231154 ZMUBYNYX
(A0981/21 NOTAMN
Q) ZMUB/QFATT/IV/BO /A /000/999/4750N10646E005
A) ZMUB B) 2112300000 C) 2201122359
E) TRIGGER NOTAM-PERM AIRAC AIP AMDT 08/21 WEF 30 DEC 2021 INTERMEDIATE HLDG PSN MARKINGS OF TWY C AND D WITHDRAWN)
- 1 week ago -
METAR
METAR ZMUB 011200Z VRB01MPS CAVOK M18/M20 Q1019 NOSIG RMK QFE657.0 80=
- 50 minutes ago -
TAF
TAF ZMUB 011040Z 0112/0218 VRB02MPS 6000 SCT100 TNM22/0122Z TXM06/0207Z BECMG 0114/0116 SCT033 BKN100 BECMG 0201/0203 32005MPS 9999 NSW SCT033 BECMG 0209/0211 VRB02MPS=
- 2 hours ago -
TAF ZMUB 010754Z 0109/0115 VRB02MPS 9999 SCT100=
- 5 hours ago -
TAF COR ZMUB 010445Z 0106/0212 VRB02MPS 6000 SCT100 TXM08/0107Z TNM23/0122Z BECMG 0114/0116 SCT033 BKN100 BECMG 0201/0203 32005MPS 9999 NSW SCT033 BECMG 0209/0211 VRB02MPS=
- 8 hours ago -
TAF ZMUB 010453Z 0106/0115 VRB02MPS 6000 SCT100=
- 8 hours ago -
TAF ZMUB 010440Z 0106/0212 VRB02MPS 6000 SCT100 TXM08/0107Z TNM23/0122Z BECMG 0114/0116 SCT033 BKN100 BECMG 0201/0203 32005MPS 9999 NSW SCT100 SCT033 BECMG 0209/0211 VRB02MPS=
- 8 hours ago -
TAF ZMUB 010219Z 0103/0112 VRB02MPS 6000 NSC BECMG 0104/0106 9999 NSW=
- 10 hours ago -